Time;durP1;ratioP1;P1;durP2;ratioP2;P2;SDS_P1;SDS_P2;PMS_P1;PMS_P2;Temp;Humidity;BMP_temperature;BMP_pressure;BME280_temperature;BME280_humidity;BME280_pressure;Samples;Min_cycle;Max_cycle;Signal;HPM_P1;HPM_P2
2022/09/19 00:00:48;;;;;;;2.10;1.50;;;;;;;7.02;93.47;95747.88;108271;1268;22556;-82
2022/09/19 00:03:35;;;;;;;2.50;1.50;;;;;;;7.05;93.50;95745.45;108254;1268;23883;-82
2022/09/19 00:06:09;;;;;;;3.20;1.50;;;;;;;7.08;93.42;95742.52;108235;1268;22586;-82
2022/09/19 00:08:43;;;;;;;5.60;1.80;;;;;;;7.09;93.31;95743.61;108134;1268;26364;-82
2022/09/19 00:11:17;;;;;;;2.60;1.40;;;;;;;7.10;93.21;95740.92;108158;1268;25402;-82
2022/09/19 00:13:51;;;;;;;3.00;1.30;;;;;;;7.11;93.34;95740.02;108230;1271;24179;-82
2022/09/19 00:16:24;;;;;;;3.80;1.30;;;;;;;7.12;93.31;95735.52;108279;1268;23141;-82
2022/09/19 00:18:57;;;;;;;2.40;1.50;;;;;;;7.13;93.15;95732.87;108096;1268;32274;-82
2022/09/19 00:21:40;;;;;;;3.50;1.80;;;;;;;7.13;93.32;95734.08;108134;1270;22524;-82
2022/09/19 00:27:03;;;;;;;4.70;1.80;;;;;;;7.14;93.35;95723.27;108145;1270;22733;-81
2022/09/19 00:29:37;;;;;;;2.60;1.40;;;;;;;7.13;93.32;95720.64;108124;1268;30044;-82
2022/09/19 00:32:12;;;;;;;2.40;1.50;;;;;;;7.13;93.42;95721.42;108178;1270;22561;-82
2022/09/19 00:34:47;;;;;;;3.20;1.70;;;;;;;7.14;93.44;95716.20;108201;1268;22562;-82
2022/09/19 00:37:20;;;;;;;2.00;1.30;;;;;;;7.15;93.36;95719.61;108101;1267;23833;-82
2022/09/19 00:39:52;;;;;;;1.90;1.10;;;;;;;7.16;93.44;95718.50;108054;1270;25766;-82
2022/09/19 00:42:26;;;;;;;2.80;1.50;;;;;;;7.18;93.37;95715.17;108157;1269;22590;-82
2022/09/19 00:45:03;;;;;;;2.90;1.60;;;;;;;7.19;93.48;95714.23;108178;1269;24243;-82
2022/09/19 00:47:42;;;;;;;3.60;1.60;;;;;;;7.22;93.48;95712.09;108143;1270;22600;-82
2022/09/19 00:50:21;;;;;;;4.20;1.60;;;;;;;7.23;93.65;95710.64;108010;1270;30235;-82
2022/09/19 00:52:56;;;;;;;2.30;1.40;;;;;;;7.25;93.57;95705.73;108187;1269;22536;-82
2022/09/19 00:55:27;;;;;;;1.40;1.10;;;;;;;7.29;93.55;95712.06;108163;1268;24099;-82
2022/09/19 00:58:05;;;;;;;3.10;1.20;;;;;;;7.33;93.60;95710.70;108115;1268;23667;-82
2022/09/19 01:00:37;;;;;;;1.10;0.90;;;;;;;7.38;93.63;95709.23;108050;1270;30516;-82
2022/09/19 01:03:09;;;;;;;2.40;1.30;;;;;;;7.41;93.62;95710.88;108070;1270;24202;-82
2022/09/19 01:05:49;;;;;;;1.90;1.00;;;;;;;7.43;93.62;95711.34;108122;1270;22564;-82
2022/09/19 01:08:47;;;;;;;1.10;1.00;;;;;;;7.46;93.63;95712.79;108053;1270;32723;-81
2022/09/19 01:11:49;;;;;;;1.50;1.10;;;;;;;7.49;93.67;95715.77;108118;1270;22535;-82
2022/09/19 01:14:30;;;;;;;1.40;0.90;;;;;;;7.49;93.91;95713.02;108167;1269;24502;-82
2022/09/19 01:17:09;;;;;;;1.50;0.90;;;;;;;7.51;93.92;95711.27;108132;1270;22737;-82
2022/09/19 01:20:18;;;;;;;2.90;1.40;;;;;;;7.52;94.05;95709.04;107997;1270;38433;-82
2022/09/19 01:23:05;;;;;;;1.70;1.20;;;;;;;7.52;94.09;95711.05;108131;1270;24231;-82
2022/09/19 01:25:46;;;;;;;2.20;0.90;;;;;;;7.52;94.16;95711.30;108182;1271;22524;-81
2022/09/19 01:28:22;;;;;;;2.90;1.10;;;;;;;7.51;94.40;95711.38;108116;1270;24218;-81
2022/09/19 01:33:47;;;;;;;1.30;0.80;;;;;;;7.51;94.65;95713.80;108146;1269;22713;-81
2022/09/19 01:36:22;;;;;;;1.10;0.80;;;;;;;7.50;94.74;95717.13;108200;1268;22594;-81
2022/09/19 01:38:54;;;;;;;2.10;0.80;;;;;;;7.47;94.93;95715.00;108036;1270;29664;-81
2022/09/19 01:41:26;;;;;;;1.20;0.80;;;;;;;7.49;94.87;95720.52;106788;1270;1801783;-81
2022/09/19 01:44:02;;;;;;;1.80;0.80;;;;;;;7.50;95.19;95718.35;108180;1271;22578;-81
2022/09/19 01:46:44;;;;;;;1.30;0.70;;;;;;;7.48;95.32;95712.14;108173;1269;23879;-81
2022/09/19 01:49:27;;;;;;;1.70;1.10;;;;;;;7.46;95.68;95716.48;108131;1270;26302;-80
2022/09/19 01:52:08;;;;;;;0.80;0.70;;;;;;;7.45;95.73;95718.70;108137;1271;25946;-81
2022/09/19 01:54:48;;;;;;;1.20;1.10;;;;;;;7.45;95.87;95718.00;108141;1270;22599;-81
2022/09/19 01:57:29;;;;;;;2.00;1.20;;;;;;;7.44;96.07;95714.27;108159;1270;22538;-81
2022/09/19 02:00:11;;;;;;;2.50;0.90;;;;;;;7.43;96.24;95711.13;108114;1270;23952;-81
2022/09/19 02:02:56;;;;;;;1.20;0.90;;;;;;;7.42;96.17;95716.25;108255;1268;22552;-80
2022/09/19 02:05:36;;;;;;;1.20;0.90;;;;;;;7.40;96.39;95712.90;108308;1267;23453;-81
2022/09/19 02:08:14;;;;;;;0.80;0.70;;;;;;;7.39;96.50;95712.28;108183;1268;22535;-81
2022/09/19 02:10:54;;;;;;;0.70;0.60;;;;;;;7.38;96.48;95712.30;108219;1267;22556;-81
2022/09/19 02:13:29;;;;;;;1.20;0.90;;;;;;;7.37;96.68;95714.27;108279;1268;23340;-80
2022/09/19 02:16:07;;;;;;;1.20;0.70;;;;;;;7.36;96.75;95717.69;108256;1268;22551;-81
2022/09/19 02:18:45;;;;;;;2.60;0.90;;;;;;;7.35;97.00;95714.86;108125;1269;29391;-80
2022/09/19 02:21:23;;;;;;;0.80;0.70;;;;;;;7.35;97.13;95721.45;108230;1267;22519;-80
2022/09/19 02:23:59;;;;;;;1.40;0.90;;;;;;;7.35;97.17;95720.09;108229;1267;22536;-80
2022/09/19 02:26:30;;;;;;;0.90;0.70;;;;;;;7.33;97.30;95721.89;108245;1268;22615;-80
2022/09/19 02:29:03;;;;;;;0.70;0.70;;;;;;;7.34;97.18;95721.84;108101;1271;25973;-80
2022/09/19 02:31:34;;;;;;;2.40;0.70;;;;;;;7.35;97.29;95723.63;108183;1268;22641;-80
2022/09/19 02:34:08;;;;;;;1.50;0.70;;;;;;;7.35;97.29;95728.15;108185;1269;22561;-80
2022/09/19 02:36:48;;;;;;;0.70;0.70;;;;;;;7.35;97.28;95731.16;108220;1268;22832;-80
2022/09/19 02:39:25;;;;;;;0.70;0.40;;;;;;;7.35;97.36;95736.43;108089;1268;29891;-80
2022/09/19 02:42:03;;;;;;;2.00;0.40;;;;;;;7.34;97.31;95738.71;108156;1268;22935;-80
2022/09/19 02:44:39;;;;;;;0.90;0.50;;;;;;;7.33;97.52;95744.26;108145;1268;25511;-80
2022/09/19 02:47:17;;;;;;;0.80;0.50;;;;;;;7.31;97.43;95748.77;108215;1268;24383;-80
2022/09/19 02:49:54;;;;;;;0.40;0.40;;;;;;;7.28;97.15;95742.86;108149;1268;30884;-80
2022/09/19 02:52:33;;;;;;;0.40;0.40;;;;;;;7.21;97.42;95746.74;108220;1268;23274;-80
2022/09/19 02:55:13;;;;;;;0.50;0.40;;;;;;;7.14;97.50;95749.20;108237;1268;22563;-80
2022/09/19 02:57:46;;;;;;;2.80;0.50;;;;;;;7.10;97.26;95746.56;108293;1268;22526;-80
2022/09/19 03:00:18;;;;;;;2.50;0.30;;;;;;;7.03;97.13;95755.67;108155;1268;32030;-80
2022/09/19 03:02:56;;;;;;;0.50;0.40;;;;;;;6.97;96.98;95756.98;108188;1268;22520;-80
2022/09/19 03:05:29;;;;;;;0.80;0.30;;;;;;;6.91;96.54;95757.31;108210;1267;22815;-80
2022/09/19 03:08:08;;;;;;;0.60;0.20;;;;;;;6.84;96.35;95759.25;108237;1268;22534;-80
2022/09/19 03:10:48;;;;;;;0.20;0.20;;;;;;;6.79;95.86;95763.56;108135;1268;29935;-80
2022/09/19 03:13:25;;;;;;;0.20;0.20;;;;;;;6.73;95.61;95768.70;108246;1268;24233;-80
2022/09/19 03:16:01;;;;;;;1.00;0.60;;;;;;;6.67;95.77;95773.02;108234;1267;22525;-80
2022/09/19 03:18:35;;;;;;;0.50;0.50;;;;;;;6.64;95.80;95779.52;108147;1268;37324;-79
2022/09/19 03:21:13;;;;;;;1.20;0.40;;;;;;;6.62;95.76;95777.27;108234;1268;22521;-80
2022/09/19 03:23:47;;;;;;;0.70;0.50;;;;;;;6.59;95.93;95784.12;108236;1268;22555;-80
2022/09/19 03:26:21;;;;;;;2.70;0.60;;;;;;;6.56;96.16;95779.88;108241;1268;22555;-80
2022/09/19 03:28:54;;;;;;;1.00;0.60;;;;;;;6.53;96.33;95781.95;108174;1268;27998;-80
2022/09/19 03:31:25;;;;;;;0.90;0.70;;;;;;;6.51;96.38;95787.33;108219;1268;24406;-80
2022/09/19 03:33:57;;;;;;;0.70;0.70;;;;;;;6.50;96.62;95783.66;108211;1268;22533;-80
2022/09/19 03:36:33;;;;;;;1.40;0.70;;;;;;;6.49;96.81;95786.52;108260;1267;24374;-80
2022/09/19 03:39:04;;;;;;;1.80;1.00;;;;;;;6.47;96.93;95792.60;108188;1268;31675;-80
2022/09/19 03:41:38;;;;;;;1.80;1.40;;;;;;;6.46;96.92;95795.30;108185;1268;22700;-80
2022/09/19 03:44:09;;;;;;;1.50;1.00;;;;;;;6.43;97.10;95792.37;108241;1268;24441;-80
2022/09/19 03:46:43;;;;;;;1.00;0.80;;;;;;;6.42;97.33;95794.06;108253;1268;22757;-80
2022/09/19 03:49:15;;;;;;;3.00;1.60;;;;;;;6.40;97.15;95795.02;108164;1268;24972;-80
2022/09/19 03:51:46;;;;;;;2.00;1.50;;;;;;;6.39;97.07;95801.92;108213;1268;24911;-80
2022/09/19 03:54:17;;;;;;;1.70;1.00;;;;;;;6.36;96.77;95802.58;108225;1268;22533;-80
2022/09/19 03:56:49;;;;;;;1.50;0.90;;;;;;;6.35;96.63;95803.53;108167;1268;22614;-80
2022/09/19 03:59:20;;;;;;;3.10;0.80;;;;;;;6.34;96.58;95808.27;108186;1268;25293;-80
2022/09/19 04:01:54;;;;;;;1.00;0.80;;;;;;;6.33;96.17;95808.74;108217;1268;22535;-80
2022/09/19 04:04:26;;;;;;;0.90;0.70;;;;;;;6.34;96.15;95811.96;108219;1268;24469;-80
2022/09/19 04:06:57;;;;;;;1.20;0.90;;;;;;;6.34;96.12;95809.96;108274;1268;22596;-80
2022/09/19 04:09:28;;;;;;;1.20;0.90;;;;;;;6.34;96.29;95808.33;108175;1268;24002;-80
2022/09/19 04:12:02;;;;;;;1.00;0.90;;;;;;;6.32;96.31;95804.68;108221;1268;22614;-80
2022/09/19 04:14:34;;;;;;;1.90;0.90;;;;;;;6.32;96.38;95803.63;108177;1268;24241;-80
2022/09/19 04:17:07;;;;;;;2.90;1.00;;;;;;;6.31;96.59;95805.80;108191;1268;22676;-80
2022/09/19 04:19:38;;;;;;;1.00;0.80;;;;;;;6.31;96.66;95803.80;108148;1268;34800;-80
2022/09/19 04:22:09;;;;;;;1.30;0.90;;;;;;;6.31;96.86;95806.22;108181;1268;22532;-80
2022/09/19 04:24:43;;;;;;;1.70;0.90;;;;;;;6.32;96.95;95810.31;108207;1268;25251;-80
2022/09/19 04:27:14;;;;;;;2.80;1.80;;;;;;;6.34;97.05;95815.50;108123;1268;22615;-80
2022/09/19 04:29:45;;;;;;;4.50;1.70;;;;;;;6.34;97.20;95816.11;108151;1268;28735;-80
2022/09/19 04:32:17;;;;;;;3.10;2.00;;;;;;;6.39;97.25;95818.46;108251;1268;24238;-80
2022/09/19 04:34:49;;;;;;;1.90;1.70;;;;;;;6.44;97.28;95822.11;108158;1268;22602;-80
2022/09/19 04:37:23;;;;;;;2.70;1.80;;;;;;;6.48;97.12;95823.17;108223;1268;22547;-80
2022/09/19 04:39:54;;;;;;;2.60;1.40;;;;;;;6.48;97.02;95819.73;108145;1268;28359;-80
2022/09/19 04:42:26;;;;;;;1.50;1.30;;;;;;;6.47;97.19;95828.95;108208;1268;23224;-80
2022/09/19 04:44:57;;;;;;;1.60;1.30;;;;;;;6.45;96.85;95830.05;108204;1268;23279;-80
2022/09/19 04:47:32;;;;;;;3.20;1.80;;;;;;;6.46;97.04;95831.05;108258;1268;23938;-80
2022/09/19 04:50:08;;;;;;;1.90;1.30;;;;;;;6.44;96.83;95835.96;108094;1268;30108;-80
2022/09/19 04:52:39;;;;;;;1.40;1.30;;;;;;;6.42;96.65;95839.60;108159;1268;23880;-80
2022/09/19 04:55:11;;;;;;;2.90;1.40;;;;;;;6.43;96.83;95844.65;108064;1271;22555;-80
2022/09/19 04:57:45;;;;;;;2.20;1.70;;;;;;;6.42;96.77;95844.02;108135;1268;22556;-80
2022/09/19 05:00:36;;;;;;;3.30;2.20;;;;;;;6.41;96.54;95841.98;108059;1268;28978;-80
2022/09/19 05:03:11;;;;;;;2.30;1.50;;;;;;;6.42;96.66;95849.55;108122;1268;22558;-80
2022/09/19 05:05:50;;;;;;;2.50;2.00;;;;;;;6.42;96.74;95852.50;108099;1271;22551;-80
2022/09/19 05:08:25;;;;;;;3.10;2.30;;;;;;;6.43;96.79;95854.61;108001;1271;27826;-80
2022/09/19 05:10:58;;;;;;;2.30;1.80;;;;;;;6.46;96.70;95856.29;108175;1268;22558;-80
2022/09/19 05:13:34;;;;;;;3.00;2.10;;;;;;;6.52;97.01;95855.89;108037;1271;22517;-80
2022/09/19 05:16:06;;;;;;;2.00;1.60;;;;;;;6.55;96.95;95859.30;108149;1268;23839;-80
2022/09/19 05:18:37;;;;;;;2.60;1.90;;;;;;;6.58;97.21;95863.17;108040;1268;35040;-80
2022/09/19 05:21:11;;;;;;;2.10;1.80;;;;;;;6.62;97.19;95865.33;108061;1271;25668;-80
2022/09/19 05:23:45;;;;;;;3.30;1.60;;;;;;;6.69;97.31;95866.27;108053;1270;22548;-80
2022/09/19 05:26:17;;;;;;;3.90;1.80;;;;;;;6.74;97.24;95866.79;108132;1271;22582;-80
2022/09/19 05:28:50;;;;;;;3.70;1.90;;;;;;;6.74;96.83;95869.32;107924;1271;34238;-80
2022/09/19 05:31:21;;;;;;;4.70;3.30;;;;;;;6.70;96.58;95873.82;108126;1271;23223;-80
2022/09/19 05:33:53;;;;;;;5.00;3.00;;;;;;;6.64;96.06;95874.44;108072;1271;22557;-80
2022/09/19 05:36:25;;;;;;;4.50;2.70;;;;;;;6.59;95.96;95876.18;108068;1271;24162;-80
2022/09/19 05:38:57;;;;;;;3.60;2.60;;;;;;;6.56;96.26;95881.77;108014;1271;29417;-80
2022/09/19 05:41:28;;;;;;;4.80;3.20;;;;;;;6.53;96.45;95885.06;108053;1271;22571;-80
2022/09/19 05:44:00;;;;;;;3.50;2.90;;;;;;;6.52;96.50;95890.86;108019;1271;22573;-80
2022/09/19 05:46:31;;;;;;;5.10;2.90;;;;;;;6.54;96.68;95888.85;108093;1269;23051;-80
2022/09/19 05:49:03;;;;;;;3.60;2.90;;;;;;;6.58;96.78;95890.20;108020;1270;22555;-80
2022/09/19 05:51:34;;;;;;;4.00;3.00;;;;;;;6.61;96.73;95893.92;108100;1270;23990;-80
2022/09/19 05:54:05;;;;;;;4.60;3.00;;;;;;;6.66;96.86;95901.76;108131;1269;22691;-80
2022/09/19 05:56:36;;;;;;;3.90;2.90;;;;;;;6.68;96.91;95903.80;108178;1270;23471;-80
2022/09/19 05:59:08;;;;;;;4.50;3.20;;;;;;;6.73;96.96;95905.51;108118;1268;28053;-80
2022/09/19 06:01:39;;;;;;;3.80;3.20;;;;;;;6.73;96.94;95907.36;108151;1268;22787;-80
2022/09/19 06:04:11;;;;;;;4.20;3.50;;;;;;;6.75;97.01;95905.82;108223;1268;22539;-80
2022/09/19 06:06:42;;;;;;;4.80;3.30;;;;;;;6.76;96.89;95911.09;108139;1268;22631;-80
2022/09/19 06:09:13;;;;;;;4.80;3.80;;;;;;;6.79;96.76;95913.40;108114;1268;28583;-80
2022/09/19 06:11:44;;;;;;;4.80;3.20;;;;;;;6.79;96.88;95916.14;108209;1268;22507;-80
2022/09/19 06:14:15;;;;;;;4.80;2.80;;;;;;;6.81;96.94;95915.71;108183;1267;24854;-80
2022/09/19 06:16:47;;;;;;;3.60;2.80;;;;;;;6.84;96.96;95919.58;108209;1268;22523;-80
2022/09/19 06:19:19;;;;;;;3.20;2.40;;;;;;;6.87;96.62;95918.25;108048;1268;26701;-80
2022/09/19 06:21:50;;;;;;;4.30;2.40;;;;;;;6.89;96.56;95917.88;108092;1271;23124;-80
2022/09/19 06:24:21;;;;;;;2.50;2.10;;;;;;;6.97;96.60;95921.90;108087;1270;23192;-80
2022/09/19 06:26:55;;;;;;;3.70;2.20;;;;;;;7.04;96.58;95926.66;108041;1269;25254;-80
2022/09/19 06:29:26;;;;;;;2.60;1.80;;;;;;;7.07;96.22;95923.91;108052;1270;26633;-80
2022/09/19 06:31:58;;;;;;;3.20;1.90;;;;;;;7.10;96.12;95926.77;108051;1270;25063;-80
2022/09/19 06:34:29;;;;;;;2.20;1.80;;;;;;;7.15;96.30;95928.59;108092;1271;24456;-80
2022/09/19 06:37:00;;;;;;;6.20;1.80;;;;;;;7.17;96.03;95932.10;108024;1270;22554;-80
2022/09/19 06:39:31;;;;;;;3.10;2.00;;;;;;;7.14;95.79;95934.81;108094;1268;30771;-81
2022/09/19 06:42:02;;;;;;;2.20;1.80;;;;;;;7.09;95.80;95939.07;108091;1270;22545;-80
2022/09/19 06:44:33;;;;;;;5.20;2.40;;;;;;;7.01;95.77;95944.85;108168;1268;22955;-80
2022/09/19 06:47:05;;;;;;;3.50;2.10;;;;;;;6.93;95.91;95947.80;108130;1268;23830;-80
2022/09/19 06:49:37;;;;;;;4.20;2.30;;;;;;;6.90;96.20;95947.33;108092;1268;29781;-80
2022/09/19 06:52:08;;;;;;;3.80;2.20;;;;;;;6.92;96.25;95949.45;108061;1270;23132;-80
2022/09/19 06:54:39;;;;;;;3.80;1.80;;;;;;;6.92;96.41;95950.23;108178;1268;22550;-80
2022/09/19 06:57:11;;;;;;;2.10;1.70;;;;;;;6.90;96.22;95953.61;108155;1268;22659;-80
2022/09/19 06:59:44;;;;;;;3.90;2.10;;;;;;;6.87;96.07;95952.92;107989;1270;33170;-79
2022/09/19 07:02:16;;;;;;;2.80;1.70;;;;;;;6.92;96.67;95957.34;108114;1268;22554;-79
2022/09/19 07:04:47;;;;;;;3.80;2.10;;;;;;;7.04;96.99;95959.86;108011;1270;22522;-80
2022/09/19 07:07:18;;;;;;;4.30;2.80;;;;;;;7.14;97.03;95962.97;108069;1270;22720;-80
2022/09/19 07:09:49;;;;;;;5.50;3.00;;;;;;;7.27;97.06;95962.79;108087;1268;26932;-80
2022/09/19 07:12:21;;;;;;;4.90;3.00;;;;;;;7.35;96.77;95960.96;108165;1268;22567;-80
2022/09/19 07:14:52;;;;;;;5.10;2.80;;;;;;;7.52;96.97;95960.42;108153;1267;22658;-80
2022/09/19 07:17:23;;;;;;;4.20;2.80;;;;;;;7.67;96.91;95959.38;108070;1270;22560;-79
2022/09/19 07:19:54;;;;;;;4.90;2.60;;;;;;;7.68;96.41;95962.52;108005;1270;30348;-79
2022/09/19 07:22:25;;;;;;;3.80;2.00;;;;;;;7.70;96.05;95964.30;108067;1270;24163;-80
2022/09/19 07:24:56;;;;;;;3.00;2.00;;;;;;;7.70;95.50;95965.09;108078;1270;22575;-80
2022/09/19 07:27:27;;;;;;;2.60;1.40;;;;;;;7.72;95.37;95969.14;108118;1268;22854;-80
2022/09/19 07:29:58;;;;;;;3.20;2.00;;;;;;;7.65;94.76;95969.63;107979;1270;32647;-80
2022/09/19 07:32:32;;;;;;;4.40;2.00;;;;;;;7.60;94.49;95975.14;108050;1270;25399;-80
2022/09/19 07:35:03;;;;;;;2.50;1.90;;;;;;;7.55;94.73;95974.90;108042;1270;22648;-80
2022/09/19 07:37:34;;;;;;;3.20;2.10;;;;;;;7.52;94.63;95976.09;108156;1268;25287;-80
2022/09/19 07:40:06;;;;;;;2.90;1.50;;;;;;;7.51;94.58;95983.17;108039;1270;31085;-80
2022/09/19 07:42:39;;;;;;;3.70;1.80;;;;;;;7.50;94.33;95983.70;108158;1268;23717;-80
2022/09/19 07:45:12;;;;;;;3.50;1.80;;;;;;;7.48;94.31;95988.95;108164;1268;22536;-80
2022/09/19 07:47:47;;;;;;;2.40;1.70;;;;;;;7.47;94.36;95989.69;108168;1268;22707;-80
2022/09/19 07:50:20;;;;;;;3.00;1.90;;;;;;;7.49;94.64;95994.64;107979;1270;30457;-80
2022/09/19 07:53:00;;;;;;;2.90;1.90;;;;;;;7.51;94.68;95992.41;108176;1268;22577;-80
2022/09/19 07:55:31;;;;;;;4.10;2.30;;;;;;;7.57;94.62;95994.95;108122;1268;24283;-80
2022/09/19 07:58:07;;;;;;;4.40;2.20;;;;;;;7.58;94.65;95997.98;108089;1270;23978;-80
2022/09/19 08:00:39;;;;;;;2.20;1.60;;;;;;;7.57;94.42;95999.90;108059;1268;29881;-80
2022/09/19 08:03:15;;;;;;;3.30;1.60;;;;;;;7.51;93.83;95999.37;108139;1267;23191;-80
2022/09/19 08:05:48;;;;;;;2.10;1.40;;;;;;;7.41;93.37;95997.83;108162;1268;22545;-80
2022/09/19 08:08:22;;;;;;;1.80;1.30;;;;;;;7.36;93.30;95997.23;108113;1268;25991;-79
2022/09/19 08:11:00;;;;;;;1.50;1.10;;;;;;;7.32;93.42;96001.11;108161;1268;22646;-80
2022/09/19 08:13:31;;;;;;;1.80;1.20;;;;;;;7.27;93.46;96006.35;108213;1266;22519;-80
2022/09/19 08:16:03;;;;;;;2.20;1.20;;;;;;;7.22;93.48;96010.13;108201;1267;22551;-80
2022/09/19 08:18:35;;;;;;;3.40;1.20;;;;;;;7.15;93.40;96008.29;108158;1268;30830;-79
2022/09/19 08:21:06;;;;;;;1.20;1.00;;;;;;;7.07;93.11;96009.98;108145;1268;22561;-80
2022/09/19 08:23:37;;;;;;;2.20;1.20;;;;;;;6.93;93.15;96007.87;108218;1268;22541;-80
2022/09/19 08:26:09;;;;;;;2.90;1.30;;;;;;;6.91;93.56;96006.66;108218;1268;23046;-80
2022/09/19 08:28:41;;;;;;;2.30;1.40;;;;;;;6.92;93.45;96007.35;108166;1267;28330;-79
2022/09/19 08:31:13;;;;;;;4.20;1.60;;;;;;;6.90;93.39;96008.92;108223;1267;22577;-80
2022/09/19 08:33:44;;;;;;;1.70;1.30;;;;;;;6.92;93.69;96003.83;108235;1267;22887;-80
2022/09/19 08:36:16;;;;;;;2.30;1.40;;;;;;;6.99;93.95;96007.63;108228;1267;22535;-80
2022/09/19 08:38:48;;;;;;;2.80;1.60;;;;;;;7.13;94.53;96008.42;108093;1265;26393;-80
2022/09/19 08:41:47;;;;;;;2.90;1.70;;;;;;;7.26;94.48;96007.88;108195;1267;22542;-80
2022/09/19 08:44:32;;;;;;;2.20;1.40;;;;;;;7.35;94.34;96011.48;108193;1267;22560;-80
2022/09/19 08:47:09;;;;;;;2.20;1.30;;;;;;;7.36;94.06;96012.21;108177;1268;22533;-80
2022/09/19 08:49:44;;;;;;;2.30;1.40;;;;;;;7.37;94.19;96011.73;108159;1267;38661;-80
2022/09/19 08:52:22;;;;;;;1.90;1.20;;;;;;;7.39;93.99;96011.61;108218;1267;22572;-80
2022/09/19 08:54:55;;;;;;;1.40;1.20;;;;;;;7.39;93.74;96016.27;108236;1267;22700;-80
2022/09/19 08:57:32;;;;;;;3.30;1.30;;;;;;;7.44;94.07;96016.86;108217;1267;22658;-80
2022/09/19 09:00:07;;;;;;;2.30;1.10;;;;;;;7.64;94.40;96018.91;108171;1267;26844;-80
2022/09/19 09:02:47;;;;;;;2.00;1.10;;;;;;;7.81;93.95;96016.48;108252;1267;22598;-80
2022/09/19 09:05:29;;;;;;;2.10;1.00;;;;;;;8.08;94.44;96012.48;108249;1268;22533;-80
2022/09/19 09:08:09;;;;;;;2.00;0.70;;;;;;;8.63;94.70;96009.20;108248;1267;23062;-80
2022/09/19 09:10:53;;;;;;;1.60;1.00;;;;;;;9.10;93.63;96006.25;108166;1267;25502;-81
2022/09/19 09:13:39;;;;;;;2.00;0.90;;;;;;;9.54;92.65;96012.19;108210;1268;23919;-80
2022/09/19 09:16:24;;;;;;;1.90;1.10;;;;;;;10.05;92.61;96001.27;108214;1268;23027;-80
2022/09/19 09:19:22;;;;;;;2.70;1.10;;;;;;;10.31;90.19;96004.49;108146;1265;58209;-79
2022/09/19 09:22:01;;;;;;;2.90;1.30;;;;;;;10.02;88.02;96000.56;108161;1268;23713;-80
2022/09/19 09:24:38;;;;;;;1.30;0.90;;;;;;;9.96;87.49;96000.02;108219;1265;24243;-80
2022/09/19 09:27:14;;;;;;;1.60;1.10;;;;;;;10.09;88.35;95998.84;108166;1268;22667;-80
2022/09/19 09:29:50;;;;;;;1.60;1.20;;;;;;;10.46;89.01;96000.63;108136;1267;30503;-80
2022/09/19 09:32:25;;;;;;;1.80;1.00;;;;;;;10.63;87.79;96000.75;108137;1268;22574;-80
2022/09/19 09:35:01;;;;;;;2.20;1.00;;;;;;;10.72;85.89;95996.17;108184;1268;22524;-80
2022/09/19 09:37:40;;;;;;;1.70;1.10;;;;;;;10.73;86.47;95993.51;108218;1267;25254;-79
2022/09/19 09:41:44;;;;;;;2.60;0.80;;;;;;;10.89;85.88;95994.44;108140;1268;30518;-80
2022/09/19 09:43:14;;;;;;;3.10;1.30;;;;;;;10.75;82.50;95992.90;108153;1268;22622;-79
2022/09/19 09:45:49;;;;;;;1.10;0.90;;;;;;;10.71;83.31;95997.48;108261;1267;24353;-80
2022/09/19 09:48:26;;;;;;;2.00;1.00;;;;;;;10.81;82.04;95993.99;108116;1268;25491;-78
2022/09/19 09:51:19;;;;;;;2.00;1.00;;;;;;;10.80;81.63;96003.56;108160;1270;22560;-80
2022/09/19 09:54:05;;;;;;;1.30;0.70;;;;;;;11.09;82.25;96005.23;108118;1270;24285;-80
2022/09/19 09:56:46;;;;;;;1.70;0.80;;;;;;;11.48;82.08;96005.77;108149;1270;22541;-80
2022/09/19 10:05:28;;;;;;;1.50;0.90;;;;;;;10.74;79.51;96017.04;108228;1268;22949;-80
2022/09/19 10:08:10;;;;;;;2.50;1.40;;;;;;;10.80;80.63;96017.66;108125;1268;22545;-80
2022/09/19 10:10:45;;;;;;;9.30;4.60;;;;;;;10.70;80.31;96021.42;108028;1270;25970;-80
2022/09/19 10:13:25;;;;;;;3.90;2.20;;;;;;;10.36;78.88;96020.56;107996;1270;24234;-81
2022/09/19 10:16:02;;;;;;;;;;;;;;;10.00;78.48;96027.73;108085;1270;25183;-81
2022/09/19 10:18:41;;;;;;;4.60;2.30;;;;;;;9.87;79.36;96027.09;108048;1270;29916;-81
2022/09/19 10:21:13;;;;;;;3.50;1.70;;;;;;;10.26;81.02;96027.01;108102;1270;25261;-81
2022/09/19 10:23:46;;;;;;;2.80;1.50;;;;;;;10.75;79.51;96024.01;108120;1270;22574;-81
2022/09/19 10:26:22;;;;;;;2.40;1.10;;;;;;;10.65;78.09;96028.75;108121;1270;24250;-81
2022/09/19 10:28:59;;;;;;;1.70;0.90;;;;;;;10.38;77.32;96029.54;107952;1270;26179;-80
2022/09/19 10:31:35;;;;;;;1.40;0.60;;;;;;;10.15;78.10;96023.78;108094;1270;22572;-81
2022/09/19 10:34:24;;;;;;;1.20;0.70;;;;;;;10.13;78.92;96028.38;108097;1270;22559;-81
2022/09/19 10:36:56;;;;;;;2.60;1.20;;;;;;;10.31;79.49;96028.69;108060;1270;23904;-82
2022/09/19 10:39:29;;;;;;;1.00;0.60;;;;;;;10.32;79.09;96030.77;107992;1268;35490;-82
2022/09/19 10:42:00;;;;;;;1.00;0.80;;;;;;;10.36;79.99;96030.79;108200;1267;22555;-82
2022/09/19 10:44:31;;;;;;;2.30;0.90;;;;;;;10.56;80.59;96034.58;108206;1267;24221;-83
2022/09/19 10:47:04;;;;;;;0.70;0.60;;;;;;;10.90;81.37;96038.75;108194;1267;22548;-82
2022/09/19 10:49:46;;;;;;;1.80;1.00;;;;;;;11.28;81.13;96043.75;108100;1268;29274;-82
2022/09/19 10:52:30;;;;;;;1.00;0.70;;;;;;;11.67;80.66;96038.48;108216;1268;22540;-81
2022/09/19 10:55:09;;;;;;;1.40;0.80;;;;;;;11.93;79.32;96041.30;108195;1268;25379;-81
2022/09/19 10:57:45;;;;;;;2.30;0.90;;;;;;;11.89;78.42;96038.39;108207;1268;24313;-81
2022/09/19 11:00:30;;;;;;;0.90;0.70;;;;;;;11.76;77.90;96034.05;108144;1267;35267;-81
2022/09/19 11:03:23;;;;;;;0.70;0.60;;;;;;;11.65;77.93;96034.27;108266;1267;25120;-81
2022/09/19 11:06:08;;;;;;;1.50;0.70;;;;;;;11.46;77.92;96037.98;108217;1267;22639;-81
2022/09/19 11:08:46;;;;;;;2.90;0.70;;;;;;;11.26;77.11;96035.02;108126;1267;38157;-81
2022/09/19 11:11:34;;;;;;;1.50;0.70;;;;;;;11.07;77.06;96046.08;108151;1268;22813;-81
2022/09/19 11:14:18;;;;;;;1.60;0.90;;;;;;;10.76;77.27;96065.31;108240;1267;22517;-81
2022/09/19 11:17:18;;;;;;;0.70;0.40;;;;;;;10.50;77.33;96085.67;108166;1268;22628;-84
2022/09/19 11:20:16;;;;;;;1.10;0.50;;;;;;;9.56;77.44;96113.98;108068;1268;28991;-82
2022/09/19 11:23:13;;;;;;;0.70;0.20;;;;;;;8.80;77.82;96113.21;108227;1267;22661;-82
2022/09/19 11:25:55;;;;;;;0.50;0.30;;;;;;;8.06;78.84;96117.66;108236;1268;22623;-82
2022/09/19 11:28:37;;;;;;;1.60;0.50;;;;;;;7.72;79.87;96118.23;108101;1267;42887;-81
2022/09/19 11:31:20;;;;;;;1.70;0.30;;;;;;;7.48;80.91;96120.27;108222;1268;23790;-82
2022/09/19 11:33:57;;;;;;;0.30;0.30;;;;;;;7.16;82.05;96120.64;108130;1270;23807;-81
2022/09/19 11:36:48;;;;;;;0.30;0.30;;;;;;;7.05;82.98;96116.67;108193;1267;24204;-81
2022/09/19 11:39:32;;;;;;;0.80;0.20;;;;;;;7.03;83.06;96116.63;108186;1268;26291;-82
2022/09/19 11:42:14;;;;;;;0.50;0.30;;;;;;;6.94;83.65;96116.44;108237;1267;22631;-82
2022/09/19 11:45:02;;;;;;;0.20;0.10;;;;;;;6.83;84.28;96117.60;108240;1267;22553;-82
2022/09/19 11:48:09;;;;;;;0.60;0.50;;;;;;;6.75;85.22;96115.40;108144;1268;22522;-81
2022/09/19 11:51:02;;;;;;;1.00;0.40;;;;;;;6.68;85.68;96115.30;107905;1267;32736;-82
2022/09/19 11:53:45;;;;;;;0.80;0.60;;;;;;;6.72;86.25;96109.87;108245;1267;22557;-82
2022/09/19 11:56:41;;;;;;;2.50;1.30;;;;;;;6.82;86.80;96111.34;108253;1268;22530;-81
2022/09/19 11:59:28;;;;;;;1.00;0.70;;;;;;;6.87;86.96;96105.16;108145;1268;25409;-81
2022/09/19 12:02:13;;;;;;;1.20;0.60;;;;;;;6.96;87.66;96104.30;108136;1268;23224;-81
2022/09/19 12:04:56;;;;;;;1.30;0.90;;;;;;;7.17;88.21;96104.35;108241;1267;22569;-81
2022/09/19 12:07:41;;;;;;;1.50;0.80;;;;;;;7.33;88.06;96101.71;108164;1267;22549;-81
2022/09/19 12:10:21;;;;;;;0.90;0.60;;;;;;;7.53;88.16;96105.48;108185;1268;29697;-81
2022/09/19 12:13:00;;;;;;;0.80;0.50;;;;;;;7.76;88.71;96103.00;108246;1268;22595;-82
2022/09/19 12:15:35;;;;;;;0.60;0.60;;;;;;;8.12;89.36;96106.54;108209;1267;24312;-81
2022/09/19 12:18:11;;;;;;;1.80;0.80;;;;;;;8.43;89.39;96096.83;108258;1267;22574;-81
2022/09/19 12:20:46;;;;;;;1.20;0.90;;;;;;;8.79;89.44;96096.98;108184;1267;27169;-81
2022/09/19 12:26:24;;;;;;;1.80;0.70;;;;;;;9.80;89.21;96088.12;108213;1267;25464;-82
2022/09/19 12:29:01;;;;;;;0.70;0.70;;;;;;;10.15;88.04;96086.67;108209;1267;32551;-82